Terminal Aerodrome Forecast
Issued by NWS Sioux Falls, SD

Home | Current Version | Previous Version | Text Only | Print | Product List | Glossary On
Versions: 1 2 3 4 5 6 7 8 9 10 11 12 13 14 15 16 17 18 19
000
FTUS43 KFSD 261131
TAFFSD
TAF
KFSD 261131Z 2612/2712 03005KT P6SM BKN015
     FM261500 07009KT P6SM BKN015
     FM261900 07013G19KT P6SM BKN025
     FM270000 07017G24KT P6SM BKN035
     FM270200 07018G26KT P6SM SHRA OVC035
     FM270500 08020G27KT 6SM TSRA BKN025 OVC050CB
     FM270700 08020G27KT 5SM SHRA OVC015
     FM270900 09021G28KT 6SM SHRA OVC008=

USA.gov is the U.S. government's official web portal to all federal, state and local government web resources and services.